sensor_id;sensor_type;location;lat;lon;timestamp;P1;durP1;ratioP1;P2;durP2;ratioP2
20417;SDS011;10368;51.436;6.774;2023-12-04T00:01:22;18.93;;;11.37;;
20417;SDS011;10368;51.436;6.774;2023-12-04T00:03:49;16.70;;;11.67;;
20417;SDS011;10368;51.436;6.774;2023-12-04T00:06:16;21.33;;;12.50;;
20417;SDS011;10368;51.436;6.774;2023-12-04T00:08:43;17.00;;;11.03;;
20417;SDS011;10368;51.436;6.774;2023-12-04T00:11:10;20.87;;;11.83;;
20417;SDS011;10368;51.436;6.774;2023-12-04T00:13:37;18.67;;;11.23;;
20417;SDS011;10368;51.436;6.774;2023-12-04T00:16:04;16.37;;;10.80;;
20417;SDS011;10368;51.436;6.774;2023-12-04T00:18:32;18.30;;;11.03;;
20417;SDS011;10368;51.436;6.774;2023-12-04T00:20:59;16.50;;;10.47;;
20417;SDS011;10368;51.436;6.774;2023-12-04T00:23:26;16.93;;;11.23;;
20417;SDS011;10368;51.436;6.774;2023-12-04T00:25:54;15.90;;;11.13;;
20417;SDS011;10368;51.436;6.774;2023-12-04T00:28:22;18.10;;;10.83;;
20417;SDS011;10368;51.436;6.774;2023-12-04T00:30:49;16.03;;;10.40;;
20417;SDS011;10368;51.436;6.774;2023-12-04T00:33:15;17.47;;;11.17;;
20417;SDS011;10368;51.436;6.774;2023-12-04T00:35:42;15.97;;;10.50;;
20417;SDS011;10368;51.436;6.774;2023-12-04T00:38:09;15.13;;;10.37;;
20417;SDS011;10368;51.436;6.774;2023-12-04T00:40:36;17.67;;;11.00;;
20417;SDS011;10368;51.436;6.774;2023-12-04T00:43:03;18.93;;;11.60;;
20417;SDS011;10368;51.436;6.774;2023-12-04T00:45:30;18.73;;;11.93;;
20417;SDS011;10368;51.436;6.774;2023-12-04T00:47:57;16.43;;;10.20;;
20417;SDS011;10368;51.436;6.774;2023-12-04T00:50:24;18.23;;;10.73;;
20417;SDS011;10368;51.436;6.774;2023-12-04T00:52:52;16.73;;;10.53;;
20417;SDS011;10368;51.436;6.774;2023-12-04T00:55:19;14.37;;;9.53;;
20417;SDS011;10368;51.436;6.774;2023-12-04T00:57:47;15.50;;;10.00;;
20417;SDS011;10368;51.436;6.774;2023-12-04T01:00:14;15.50;;;10.30;;
20417;SDS011;10368;51.436;6.774;2023-12-04T01:02:41;15.47;;;10.20;;
20417;SDS011;10368;51.436;6.774;2023-12-04T01:05:09;15.07;;;10.13;;
20417;SDS011;10368;51.436;6.774;2023-12-04T01:07:36;15.27;;;10.20;;
20417;SDS011;10368;51.436;6.774;2023-12-04T01:10:03;13.40;;;8.73;;
20417;SDS011;10368;51.436;6.774;2023-12-04T01:12:30;15.97;;;10.10;;
20417;SDS011;10368;51.436;6.774;2023-12-04T01:14:57;14.60;;;9.87;;
20417;SDS011;10368;51.436;6.774;2023-12-04T01:17:24;16.63;;;10.63;;
20417;SDS011;10368;51.436;6.774;2023-12-04T01:19:51;18.77;;;9.23;;
20417;SDS011;10368;51.436;6.774;2023-12-04T01:22:18;13.03;;;8.93;;
20417;SDS011;10368;51.436;6.774;2023-12-04T01:24:45;14.40;;;8.93;;
20417;SDS011;10368;51.436;6.774;2023-12-04T01:27:12;13.00;;;9.37;;
20417;SDS011;10368;51.436;6.774;2023-12-04T01:29:39;15.00;;;9.87;;
20417;SDS011;10368;51.436;6.774;2023-12-04T01:32:06;15.40;;;9.50;;
20417;SDS011;10368;51.436;6.774;2023-12-04T01:34:33;13.93;;;9.53;;
20417;SDS011;10368;51.436;6.774;2023-12-04T01:37:00;15.17;;;9.80;;
20417;SDS011;10368;51.436;6.774;2023-12-04T01:39:27;14.03;;;9.90;;
20417;SDS011;10368;51.436;6.774;2023-12-04T01:41:53;13.60;;;9.27;;
20417;SDS011;10368;51.436;6.774;2023-12-04T01:44:20;13.93;;;9.17;;
20417;SDS011;10368;51.436;6.774;2023-12-04T01:46:48;16.33;;;9.73;;
20417;SDS011;10368;51.436;6.774;2023-12-04T01:49:15;13.87;;;9.23;;
20417;SDS011;10368;51.436;6.774;2023-12-04T01:51:43;13.03;;;8.43;;
20417;SDS011;10368;51.436;6.774;2023-12-04T01:54:11;12.77;;;8.40;;
20417;SDS011;10368;51.436;6.774;2023-12-04T01:56:39;12.93;;;8.47;;
20417;SDS011;10368;51.436;6.774;2023-12-04T01:59:06;13.03;;;9.17;;
20417;SDS011;10368;51.436;6.774;2023-12-04T02:01:33;12.43;;;9.17;;
20417;SDS011;10368;51.436;6.774;2023-12-04T02:04:01;11.90;;;8.53;;
20417;SDS011;10368;51.436;6.774;2023-12-04T02:06:29;12.67;;;9.00;;
20417;SDS011;10368;51.436;6.774;2023-12-04T02:08:56;11.13;;;8.57;;
20417;SDS011;10368;51.436;6.774;2023-12-04T02:11:23;11.97;;;8.53;;
20417;SDS011;10368;51.436;6.774;2023-12-04T02:13:50;12.30;;;8.43;;
20417;SDS011;10368;51.436;6.774;2023-12-04T02:16:18;13.40;;;8.77;;
20417;SDS011;10368;51.436;6.774;2023-12-04T02:18:46;12.03;;;8.20;;
20417;SDS011;10368;51.436;6.774;2023-12-04T02:21:13;13.53;;;8.77;;
20417;SDS011;10368;51.436;6.774;2023-12-04T02:23:40;12.27;;;8.57;;
20417;SDS011;10368;51.436;6.774;2023-12-04T02:26:09;12.90;;;8.47;;
20417;SDS011;10368;51.436;6.774;2023-12-04T02:28:46;10.33;;;7.87;;
20417;SDS011;10368;51.436;6.774;2023-12-04T02:31:19;14.17;;;8.77;;
20417;SDS011;10368;51.436;6.774;2023-12-04T02:33:55;10.57;;;7.43;;
20417;SDS011;10368;51.436;6.774;2023-12-04T02:36:23;11.53;;;8.40;;
20417;SDS011;10368;51.436;6.774;2023-12-04T02:38:51;13.23;;;8.97;;
20417;SDS011;10368;51.436;6.774;2023-12-04T02:41:19;11.43;;;7.93;;
20417;SDS011;10368;51.436;6.774;2023-12-04T02:43:46;11.57;;;7.77;;
20417;SDS011;10368;51.436;6.774;2023-12-04T02:46:13;12.93;;;8.43;;
20417;SDS011;10368;51.436;6.774;2023-12-04T02:48:40;12.60;;;8.73;;
20417;SDS011;10368;51.436;6.774;2023-12-04T02:51:07;9.73;;;7.60;;
20417;SDS011;10368;51.436;6.774;2023-12-04T02:53:34;12.30;;;8.37;;
20417;SDS011;10368;51.436;6.774;2023-12-04T02:56:01;11.37;;;8.10;;
20417;SDS011;10368;51.436;6.774;2023-12-04T02:58:28;11.00;;;8.00;;
20417;SDS011;10368;51.436;6.774;2023-12-04T03:00:55;12.07;;;7.93;;
20417;SDS011;10368;51.436;6.774;2023-12-04T03:03:24;11.17;;;7.67;;
20417;SDS011;10368;51.436;6.774;2023-12-04T03:05:51;12.30;;;8.23;;
20417;SDS011;10368;51.436;6.774;2023-12-04T03:08:17;11.47;;;7.50;;
20417;SDS011;10368;51.436;6.774;2023-12-04T03:10:44;11.33;;;7.70;;
20417;SDS011;10368;51.436;6.774;2023-12-04T03:13:11;11.43;;;8.80;;
20417;SDS011;10368;51.436;6.774;2023-12-04T03:15:38;9.30;;;7.37;;
20417;SDS011;10368;51.436;6.774;2023-12-04T03:18:05;10.43;;;7.80;;
20417;SDS011;10368;51.436;6.774;2023-12-04T03:20:34;9.83;;;7.20;;
20417;SDS011;10368;51.436;6.774;2023-12-04T03:23:01;9.53;;;7.80;;
20417;SDS011;10368;51.436;6.774;2023-12-04T03:25:28;10.27;;;8.07;;
20417;SDS011;10368;51.436;6.774;2023-12-04T03:27:55;10.70;;;7.70;;
20417;SDS011;10368;51.436;6.774;2023-12-04T03:30:22;10.83;;;6.90;;
20417;SDS011;10368;51.436;6.774;2023-12-04T03:32:49;12.70;;;7.30;;
20417;SDS011;10368;51.436;6.774;2023-12-04T03:35:16;11.40;;;7.10;;
20417;SDS011;10368;51.436;6.774;2023-12-04T03:37:43;9.43;;;7.13;;
20417;SDS011;10368;51.436;6.774;2023-12-04T03:40:10;10.30;;;6.97;;
20417;SDS011;10368;51.436;6.774;2023-12-04T03:42:37;12.37;;;7.67;;
20417;SDS011;10368;51.436;6.774;2023-12-04T03:45:04;10.33;;;7.17;;
20417;SDS011;10368;51.436;6.774;2023-12-04T03:47:32;9.73;;;6.83;;
20417;SDS011;10368;51.436;6.774;2023-12-04T03:49:59;10.40;;;7.23;;
20417;SDS011;10368;51.436;6.774;2023-12-04T03:52:25;7.67;;;6.40;;
20417;SDS011;10368;51.436;6.774;2023-12-04T03:54:52;10.53;;;7.23;;
20417;SDS011;10368;51.436;6.774;2023-12-04T03:57:19;8.57;;;6.87;;
20417;SDS011;10368;51.436;6.774;2023-12-04T03:59:46;8.83;;;6.53;;
20417;SDS011;10368;51.436;6.774;2023-12-04T04:02:13;8.07;;;5.97;;
20417;SDS011;10368;51.436;6.774;2023-12-04T04:04:40;7.93;;;5.67;;
20417;SDS011;10368;51.436;6.774;2023-12-04T04:07:08;7.77;;;6.33;;
20417;SDS011;10368;51.436;6.774;2023-12-04T04:09:35;7.93;;;6.13;;
20417;SDS011;10368;51.436;6.774;2023-12-04T04:12:02;8.83;;;6.17;;
20417;SDS011;10368;51.436;6.774;2023-12-04T04:14:29;7.40;;;6.10;;
20417;SDS011;10368;51.436;6.774;2023-12-04T04:16:56;7.97;;;5.23;;
20417;SDS011;10368;51.436;6.774;2023-12-04T04:19:23;9.23;;;6.23;;
20417;SDS011;10368;51.436;6.774;2023-12-04T04:21:50;8.80;;;5.87;;
20417;SDS011;10368;51.436;6.774;2023-12-04T04:24:17;7.90;;;5.70;;
20417;SDS011;10368;51.436;6.774;2023-12-04T04:26:44;8.67;;;5.97;;
20417;SDS011;10368;51.436;6.774;2023-12-04T04:29:11;7.70;;;5.90;;
20417;SDS011;10368;51.436;6.774;2023-12-04T04:31:39;8.57;;;6.07;;
20417;SDS011;10368;51.436;6.774;2023-12-04T04:34:06;12.13;;;5.83;;
20417;SDS011;10368;51.436;6.774;2023-12-04T04:36:33;7.00;;;6.10;;
20417;SDS011;10368;51.436;6.774;2023-12-04T04:39:02;7.57;;;6.17;;
20417;SDS011;10368;51.436;6.774;2023-12-04T04:41:29;9.60;;;6.33;;
20417;SDS011;10368;51.436;6.774;2023-12-04T04:43:56;8.87;;;5.97;;
20417;SDS011;10368;51.436;6.774;2023-12-04T04:46:23;7.63;;;5.70;;
20417;SDS011;10368;51.436;6.774;2023-12-04T04:48:53;7.90;;;5.70;;
20417;SDS011;10368;51.436;6.774;2023-12-04T04:51:20;6.73;;;5.50;;
20417;SDS011;10368;51.436;6.774;2023-12-04T04:53:47;9.30;;;6.03;;
20417;SDS011;10368;51.436;6.774;2023-12-04T04:56:14;7.53;;;5.57;;
20417;SDS011;10368;51.436;6.774;2023-12-04T04:58:41;7.33;;;5.30;;
20417;SDS011;10368;51.436;6.774;2023-12-04T05:01:08;7.10;;;5.47;;
20417;SDS011;10368;51.436;6.774;2023-12-04T05:03:35;7.67;;;5.80;;
20417;SDS011;10368;51.436;6.774;2023-12-04T05:06:02;7.83;;;5.93;;
20417;SDS011;10368;51.436;6.774;2023-12-04T05:08:30;8.37;;;6.37;;
20417;SDS011;10368;51.436;6.774;2023-12-04T05:10:57;7.93;;;5.43;;
20417;SDS011;10368;51.436;6.774;2023-12-04T05:13:24;8.47;;;6.00;;
20417;SDS011;10368;51.436;6.774;2023-12-04T05:15:51;9.00;;;6.23;;
20417;SDS011;10368;51.436;6.774;2023-12-04T05:18:17;8.50;;;6.57;;
20417;SDS011;10368;51.436;6.774;2023-12-04T05:20:44;12.20;;;6.87;;
20417;SDS011;10368;51.436;6.774;2023-12-04T05:23:11;7.93;;;6.23;;
20417;SDS011;10368;51.436;6.774;2023-12-04T05:25:38;9.23;;;6.07;;
20417;SDS011;10368;51.436;6.774;2023-12-04T05:28:13;7.80;;;6.00;;
20417;SDS011;10368;51.436;6.774;2023-12-04T05:30:40;9.03;;;6.10;;
20417;SDS011;10368;51.436;6.774;2023-12-04T05:33:07;7.97;;;6.33;;
20417;SDS011;10368;51.436;6.774;2023-12-04T05:35:35;8.70;;;6.20;;
20417;SDS011;10368;51.436;6.774;2023-12-04T05:38:03;8.60;;;6.63;;
20417;SDS011;10368;51.436;6.774;2023-12-04T05:40:31;9.30;;;6.87;;
20417;SDS011;10368;51.436;6.774;2023-12-04T05:42:58;7.77;;;6.30;;
20417;SDS011;10368;51.436;6.774;2023-12-04T05:45:25;9.50;;;6.73;;
20417;SDS011;10368;51.436;6.774;2023-12-04T05:47:52;10.17;;;7.17;;
20417;SDS011;10368;51.436;6.774;2023-12-04T05:50:19;11.83;;;7.53;;
20417;SDS011;10368;51.436;6.774;2023-12-04T05:52:49;10.13;;;6.67;;
20417;SDS011;10368;51.436;6.774;2023-12-04T05:55:17;9.40;;;7.53;;
20417;SDS011;10368;51.436;6.774;2023-12-04T05:57:44;9.13;;;7.07;;
20417;SDS011;10368;51.436;6.774;2023-12-04T06:00:12;11.23;;;7.30;;
20417;SDS011;10368;51.436;6.774;2023-12-04T06:02:41;8.87;;;7.13;;
20417;SDS011;10368;51.436;6.774;2023-12-04T06:05:09;9.17;;;6.93;;
20417;SDS011;10368;51.436;6.774;2023-12-04T06:07:37;11.50;;;7.50;;
20417;SDS011;10368;51.436;6.774;2023-12-04T06:10:05;10.10;;;6.93;;
20417;SDS011;10368;51.436;6.774;2023-12-04T06:12:33;10.93;;;7.80;;
20417;SDS011;10368;51.436;6.774;2023-12-04T06:15:01;10.10;;;7.67;;
20417;SDS011;10368;51.436;6.774;2023-12-04T06:17:28;9.90;;;7.43;;
20417;SDS011;10368;51.436;6.774;2023-12-04T06:19:55;11.30;;;8.20;;
20417;SDS011;10368;51.436;6.774;2023-12-04T06:22:22;9.93;;;8.23;;
20417;SDS011;10368;51.436;6.774;2023-12-04T06:24:49;9.67;;;7.73;;
20417;SDS011;10368;51.436;6.774;2023-12-04T06:27:17;11.57;;;7.97;;
20417;SDS011;10368;51.436;6.774;2023-12-04T06:29:48;9.73;;;7.43;;
20417;SDS011;10368;51.436;6.774;2023-12-04T06:32:18;11.53;;;7.87;;
20417;SDS011;10368;51.436;6.774;2023-12-04T06:34:46;10.13;;;7.50;;
20417;SDS011;10368;51.436;6.774;2023-12-04T06:37:13;10.97;;;7.77;;
20417;SDS011;10368;51.436;6.774;2023-12-04T06:39:41;9.83;;;7.33;;
20417;SDS011;10368;51.436;6.774;2023-12-04T06:42:11;10.03;;;7.70;;
20417;SDS011;10368;51.436;6.774;2023-12-04T06:44:38;12.10;;;8.20;;
20417;SDS011;10368;51.436;6.774;2023-12-04T06:47:06;11.93;;;8.20;;
20417;SDS011;10368;51.436;6.774;2023-12-04T06:49:34;12.17;;;8.53;;
20417;SDS011;10368;51.436;6.774;2023-12-04T06:52:01;9.40;;;6.93;;
20417;SDS011;10368;51.436;6.774;2023-12-04T06:54:29;10.43;;;7.77;;
20417;SDS011;10368;51.436;6.774;2023-12-04T06:56:56;11.33;;;7.17;;
20417;SDS011;10368;51.436;6.774;2023-12-04T06:59:23;11.77;;;7.97;;
20417;SDS011;10368;51.436;6.774;2023-12-04T07:01:50;11.50;;;8.67;;
20417;SDS011;10368;51.436;6.774;2023-12-04T07:04:18;11.83;;;7.97;;
20417;SDS011;10368;51.436;6.774;2023-12-04T07:06:48;11.23;;;8.27;;
20417;SDS011;10368;51.436;6.774;2023-12-04T07:09:15;9.47;;;7.33;;
20417;SDS011;10368;51.436;6.774;2023-12-04T07:11:45;11.23;;;8.20;;
20417;SDS011;10368;51.436;6.774;2023-12-04T07:14:12;11.70;;;8.53;;
20417;SDS011;10368;51.436;6.774;2023-12-04T07:16:40;10.90;;;8.50;;
20417;SDS011;10368;51.436;6.774;2023-12-04T07:19:10;11.03;;;8.23;;
20417;SDS011;10368;51.436;6.774;2023-12-04T07:21:37;11.13;;;7.37;;
20417;SDS011;10368;51.436;6.774;2023-12-04T07:24:06;11.17;;;8.17;;
20417;SDS011;10368;51.436;6.774;2023-12-04T07:26:33;11.63;;;8.13;;
20417;SDS011;10368;51.436;6.774;2023-12-04T07:29:01;11.33;;;7.40;;
20417;SDS011;10368;51.436;6.774;2023-12-04T07:31:29;11.83;;;8.13;;
20417;SDS011;10368;51.436;6.774;2023-12-04T07:33:55;12.37;;;8.53;;
20417;SDS011;10368;51.436;6.774;2023-12-04T07:36:23;11.10;;;7.87;;
20417;SDS011;10368;51.436;6.774;2023-12-04T07:38:51;11.87;;;7.73;;
20417;SDS011;10368;51.436;6.774;2023-12-04T07:41:20;10.53;;;6.87;;
20417;SDS011;10368;51.436;6.774;2023-12-04T07:43:48;10.50;;;7.57;;
20417;SDS011;10368;51.436;6.774;2023-12-04T07:46:15;13.10;;;8.53;;
20417;SDS011;10368;51.436;6.774;2023-12-04T07:48:42;12.37;;;7.60;;
20417;SDS011;10368;51.436;6.774;2023-12-04T07:51:13;10.57;;;7.03;;
20417;SDS011;10368;51.436;6.774;2023-12-04T07:53:40;13.23;;;8.47;;
20417;SDS011;10368;51.436;6.774;2023-12-04T07:56:07;13.57;;;8.63;;
20417;SDS011;10368;51.436;6.774;2023-12-04T07:58:34;10.07;;;7.27;;
20417;SDS011;10368;51.436;6.774;2023-12-04T08:01:01;11.40;;;7.40;;
20417;SDS011;10368;51.436;6.774;2023-12-04T08:03:28;10.87;;;7.47;;
20417;SDS011;10368;51.436;6.774;2023-12-04T08:05:55;12.27;;;8.70;;
20417;SDS011;10368;51.436;6.774;2023-12-04T08:08:22;14.10;;;7.97;;
20417;SDS011;10368;51.436;6.774;2023-12-04T08:10:49;11.17;;;6.90;;
20417;SDS011;10368;51.436;6.774;2023-12-04T08:13:16;10.20;;;7.03;;
20417;SDS011;10368;51.436;6.774;2023-12-04T08:15:44;8.50;;;6.77;;
20417;SDS011;10368;51.436;6.774;2023-12-04T08:18:11;8.67;;;6.23;;
20417;SDS011;10368;51.436;6.774;2023-12-04T08:20:38;10.00;;;7.53;;
20417;SDS011;10368;51.436;6.774;2023-12-04T08:23:07;11.23;;;6.20;;
20417;SDS011;10368;51.436;6.774;2023-12-04T08:25:34;9.10;;;7.30;;
20417;SDS011;10368;51.436;6.774;2023-12-04T08:28:05;8.33;;;6.67;;
20417;SDS011;10368;51.436;6.774;2023-12-04T08:30:33;11.40;;;7.07;;
20417;SDS011;10368;51.436;6.774;2023-12-04T08:32:59;8.23;;;5.77;;
20417;SDS011;10368;51.436;6.774;2023-12-04T08:35:26;7.13;;;5.50;;
20417;SDS011;10368;51.436;6.774;2023-12-04T08:37:54;10.07;;;7.00;;
20417;SDS011;10368;51.436;6.774;2023-12-04T08:40:21;8.13;;;6.20;;
20417;SDS011;10368;51.436;6.774;2023-12-04T08:42:48;8.77;;;6.57;;
20417;SDS011;10368;51.436;6.774;2023-12-04T08:45:15;8.40;;;5.70;;
20417;SDS011;10368;51.436;6.774;2023-12-04T08:47:45;7.37;;;6.03;;
20417;SDS011;10368;51.436;6.774;2023-12-04T08:50:12;8.30;;;5.83;;
20417;SDS011;10368;51.436;6.774;2023-12-04T08:52:39;11.27;;;6.23;;
20417;SDS011;10368;51.436;6.774;2023-12-04T08:55:09;7.83;;;6.03;;
20417;SDS011;10368;51.436;6.774;2023-12-04T08:57:37;7.37;;;5.47;;
20417;SDS011;10368;51.436;6.774;2023-12-04T09:00:04;6.80;;;5.50;;
20417;SDS011;10368;51.436;6.774;2023-12-04T09:02:31;9.00;;;6.17;;
20417;SDS011;10368;51.436;6.774;2023-12-04T09:04:59;6.83;;;5.07;;
20417;SDS011;10368;51.436;6.774;2023-12-04T09:07:26;6.80;;;5.30;;
20417;SDS011;10368;51.436;6.774;2023-12-04T09:09:57;7.27;;;5.40;;
20417;SDS011;10368;51.436;6.774;2023-12-04T09:12:25;5.73;;;4.57;;
20417;SDS011;10368;51.436;6.774;2023-12-04T09:14:52;7.27;;;5.53;;
20417;SDS011;10368;51.436;6.774;2023-12-04T09:17:19;10.03;;;5.10;;
20417;SDS011;10368;51.436;6.774;2023-12-04T09:19:48;8.63;;;4.83;;
20417;SDS011;10368;51.436;6.774;2023-12-04T09:22:16;6.80;;;4.80;;
20417;SDS011;10368;51.436;6.774;2023-12-04T09:24:47;8.17;;;4.87;;
20417;SDS011;10368;51.436;6.774;2023-12-04T09:27:14;10.57;;;5.03;;
20417;SDS011;10368;51.436;6.774;2023-12-04T09:29:41;6.43;;;5.17;;
20417;SDS011;10368;51.436;6.774;2023-12-04T09:32:08;8.40;;;4.83;;
20417;SDS011;10368;51.436;6.774;2023-12-04T09:34:37;6.40;;;4.90;;
20417;SDS011;10368;51.436;6.774;2023-12-04T09:37:04;7.83;;;5.33;;
20417;SDS011;10368;51.436;6.774;2023-12-04T09:39:37;6.30;;;4.77;;
20417;SDS011;10368;51.436;6.774;2023-12-04T09:42:04;10.03;;;4.87;;
20417;SDS011;10368;51.436;6.774;2023-12-04T09:44:31;7.27;;;4.87;;
20417;SDS011;10368;51.436;6.774;2023-12-04T09:47:01;7.80;;;4.80;;
20417;SDS011;10368;51.436;6.774;2023-12-04T09:49:29;6.00;;;4.50;;
20417;SDS011;10368;51.436;6.774;2023-12-04T09:51:57;8.17;;;4.93;;
20417;SDS011;10368;51.436;6.774;2023-12-04T09:54:26;11.77;;;5.57;;
20417;SDS011;10368;51.436;6.774;2023-12-04T09:56:56;6.67;;;4.97;;
20417;SDS011;10368;51.436;6.774;2023-12-04T09:59:24;8.70;;;4.47;;
20417;SDS011;10368;51.436;6.774;2023-12-04T10:01:52;8.53;;;4.93;;
20417;SDS011;10368;51.436;6.774;2023-12-04T10:04:22;8.63;;;6.03;;
20417;SDS011;10368;51.436;6.774;2023-12-04T10:06:51;11.47;;;6.53;;
20417;SDS011;10368;51.436;6.774;2023-12-04T10:09:19;9.07;;;4.97;;
20417;SDS011;10368;51.436;6.774;2023-12-04T10:11:52;5.53;;;4.23;;
20417;SDS011;10368;51.436;6.774;2023-12-04T10:14:24;5.63;;;4.33;;
20417;SDS011;10368;51.436;6.774;2023-12-04T10:16:52;7.90;;;4.37;;
20417;SDS011;10368;51.436;6.774;2023-12-04T10:19:20;6.67;;;4.37;;
20417;SDS011;10368;51.436;6.774;2023-12-04T10:21:56;7.77;;;4.90;;
20417;SDS011;10368;51.436;6.774;2023-12-04T10:26:56;7.93;;;5.70;;
20417;SDS011;10368;51.436;6.774;2023-12-04T10:29:26;6.40;;;4.70;;
20417;SDS011;10368;51.436;6.774;2023-12-04T10:31:54;6.50;;;5.00;;
20417;SDS011;10368;51.436;6.774;2023-12-04T10:34:22;7.43;;;4.73;;
20417;SDS011;10368;51.436;6.774;2023-12-04T10:36:57;8.33;;;5.30;;
20417;SDS011;10368;51.436;6.774;2023-12-04T10:39:24;8.13;;;5.37;;
20417;SDS011;10368;51.436;6.774;2023-12-04T10:41:58;5.77;;;4.50;;
20417;SDS011;10368;51.436;6.774;2023-12-04T10:44:28;8.00;;;4.77;;
20417;SDS011;10368;51.436;6.774;2023-12-04T10:46:56;8.07;;;5.10;;
20417;SDS011;10368;51.436;6.774;2023-12-04T10:49:28;8.17;;;5.20;;
20417;SDS011;10368;51.436;6.774;2023-12-04T10:51:55;7.80;;;5.53;;
20417;SDS011;10368;51.436;6.774;2023-12-04T10:54:24;10.33;;;5.87;;
20417;SDS011;10368;51.436;6.774;2023-12-04T10:56:52;10.17;;;4.43;;
20417;SDS011;10368;51.436;6.774;2023-12-04T10:59:25;6.33;;;4.83;;
20417;SDS011;10368;51.436;6.774;2023-12-04T11:01:59;7.73;;;5.60;;
20417;SDS011;10368;51.436;6.774;2023-12-04T11:04:31;7.77;;;5.67;;
20417;SDS011;10368;51.436;6.774;2023-12-04T11:07:02;7.53;;;5.60;;
20417;SDS011;10368;51.436;6.774;2023-12-04T11:09:34;7.50;;;5.47;;
20417;SDS011;10368;51.436;6.774;2023-12-04T11:12:03;10.77;;;5.80;;
20417;SDS011;10368;51.436;6.774;2023-12-04T11:14:40;7.87;;;5.23;;
20417;SDS011;10368;51.436;6.774;2023-12-04T11:17:12;9.53;;;6.97;;
20417;SDS011;10368;51.436;6.774;2023-12-04T11:22:34;8.27;;;5.90;;
20417;SDS011;10368;51.436;6.774;2023-12-04T11:25:05;10.03;;;5.33;;
20417;SDS011;10368;51.436;6.774;2023-12-04T11:27:34;7.13;;;5.73;;
20417;SDS011;10368;51.436;6.774;2023-12-04T11:30:02;8.83;;;6.43;;
20417;SDS011;10368;51.436;6.774;2023-12-04T11:32:30;7.20;;;5.77;;
20417;SDS011;10368;51.436;6.774;2023-12-04T11:34:59;8.67;;;5.97;;
20417;SDS011;10368;51.436;6.774;2023-12-04T11:37:28;9.20;;;5.70;;
20417;SDS011;10368;51.436;6.774;2023-12-04T11:39:56;7.77;;;5.70;;
20417;SDS011;10368;51.436;6.774;2023-12-04T11:42:25;12.93;;;6.40;;
20417;SDS011;10368;51.436;6.774;2023-12-04T11:44:55;9.37;;;6.73;;
20417;SDS011;10368;51.436;6.774;2023-12-04T11:47:24;10.10;;;6.60;;
20417;SDS011;10368;51.436;6.774;2023-12-04T11:49:54;17.53;;;8.70;;
20417;SDS011;10368;51.436;6.774;2023-12-04T11:52:31;8.63;;;6.37;;
20417;SDS011;10368;51.436;6.774;2023-12-04T11:55:01;9.03;;;5.87;;
20417;SDS011;10368;51.436;6.774;2023-12-04T11:57:34;9.27;;;6.73;;
20417;SDS011;10368;51.436;6.774;2023-12-04T12:03:07;9.57;;;6.20;;
20417;SDS011;10368;51.436;6.774;2023-12-04T12:05:48;8.83;;;6.87;;
20417;SDS011;10368;51.436;6.774;2023-12-04T12:08:19;9.47;;;6.80;;
20417;SDS011;10368;51.436;6.774;2023-12-04T12:10:48;10.23;;;7.93;;
20417;SDS011;10368;51.436;6.774;2023-12-04T12:13:16;11.43;;;7.77;;
20417;SDS011;10368;51.436;6.774;2023-12-04T12:15:46;10.13;;;7.30;;
20417;SDS011;10368;51.436;6.774;2023-12-04T12:18:19;9.77;;;6.90;;
20417;SDS011;10368;51.436;6.774;2023-12-04T12:20:49;9.97;;;6.73;;
20417;SDS011;10368;51.436;6.774;2023-12-04T12:23:16;11.53;;;7.33;;
20417;SDS011;10368;51.436;6.774;2023-12-04T12:25:43;9.83;;;7.27;;
20417;SDS011;10368;51.436;6.774;2023-12-04T12:28:11;9.33;;;6.70;;
20417;SDS011;10368;51.436;6.774;2023-12-04T12:30:38;12.60;;;7.70;;
20417;SDS011;10368;51.436;6.774;2023-12-04T12:33:05;10.83;;;7.60;;
20417;SDS011;10368;51.436;6.774;2023-12-04T12:35:35;12.10;;;8.10;;
20417;SDS011;10368;51.436;6.774;2023-12-04T12:38:02;8.37;;;7.57;;
20417;SDS011;10368;51.436;6.774;2023-12-04T12:40:29;10.37;;;7.80;;
20417;SDS011;10368;51.436;6.774;2023-12-04T12:43:06;9.33;;;6.57;;
20417;SDS011;10368;51.436;6.774;2023-12-04T12:48:16;13.63;;;7.70;;
20417;SDS011;10368;51.436;6.774;2023-12-04T12:50:44;11.97;;;7.37;;
20417;SDS011;10368;51.436;6.774;2023-12-04T12:53:13;8.87;;;7.23;;
20417;SDS011;10368;51.436;6.774;2023-12-04T12:55:41;10.17;;;7.40;;
20417;SDS011;10368;51.436;6.774;2023-12-04T12:58:12;10.00;;;8.30;;
20417;SDS011;10368;51.436;6.774;2023-12-04T13:00:40;10.37;;;7.13;;
20417;SDS011;10368;51.436;6.774;2023-12-04T13:05:43;10.90;;;7.93;;
20417;SDS011;10368;51.436;6.774;2023-12-04T13:08:11;10.37;;;7.53;;
20417;SDS011;10368;51.436;6.774;2023-12-04T13:10:40;11.20;;;7.33;;
20417;SDS011;10368;51.436;6.774;2023-12-04T13:13:11;21.50;;;7.40;;
20417;SDS011;10368;51.436;6.774;2023-12-04T13:15:38;10.27;;;7.40;;
20417;SDS011;10368;51.436;6.774;2023-12-04T13:18:08;8.07;;;6.77;;
20417;SDS011;10368;51.436;6.774;2023-12-04T13:20:35;10.90;;;7.30;;
20417;SDS011;10368;51.436;6.774;2023-12-04T13:23:02;11.93;;;7.50;;
20417;SDS011;10368;51.436;6.774;2023-12-04T13:25:29;9.63;;;7.53;;
20417;SDS011;10368;51.436;6.774;2023-12-04T13:27:58;8.70;;;6.80;;
20417;SDS011;10368;51.436;6.774;2023-12-04T13:30:25;9.57;;;6.57;;
20417;SDS011;10368;51.436;6.774;2023-12-04T13:32:52;7.93;;;6.50;;
20417;SDS011;10368;51.436;6.774;2023-12-04T13:35:19;8.30;;;6.67;;
20417;SDS011;10368;51.436;6.774;2023-12-04T13:37:46;8.60;;;6.40;;
20417;SDS011;10368;51.436;6.774;2023-12-04T13:40:21;10.30;;;6.80;;
20417;SDS011;10368;51.436;6.774;2023-12-04T13:42:50;6.90;;;6.20;;
20417;SDS011;10368;51.436;6.774;2023-12-04T13:45:35;11.77;;;6.67;;
20417;SDS011;10368;51.436;6.774;2023-12-04T13:48:03;9.23;;;6.87;;
20417;SDS011;10368;51.436;6.774;2023-12-04T13:50:31;7.03;;;5.83;;
20417;SDS011;10368;51.436;6.774;2023-12-04T13:52:58;9.40;;;6.87;;
20417;SDS011;10368;51.436;6.774;2023-12-04T13:55:25;8.97;;;6.13;;
20417;SDS011;10368;51.436;6.774;2023-12-04T13:58:19;8.13;;;6.43;;
20417;SDS011;10368;51.436;6.774;2023-12-04T14:01:06;8.20;;;5.70;;
20417;SDS011;10368;51.436;6.774;2023-12-04T14:03:41;9.20;;;6.87;;
20417;SDS011;10368;51.436;6.774;2023-12-04T14:06:10;8.30;;;6.10;;
20417;SDS011;10368;51.436;6.774;2023-12-04T14:08:37;8.53;;;6.60;;
20417;SDS011;10368;51.436;6.774;2023-12-04T14:11:05;8.40;;;6.20;;
20417;SDS011;10368;51.436;6.774;2023-12-04T14:13:37;10.33;;;6.53;;
20417;SDS011;10368;51.436;6.774;2023-12-04T14:16:07;7.90;;;6.30;;
20417;SDS011;10368;51.436;6.774;2023-12-04T14:18:35;11.87;;;6.50;;
20417;SDS011;10368;51.436;6.774;2023-12-04T14:21:06;8.37;;;5.90;;
20417;SDS011;10368;51.436;6.774;2023-12-04T14:23:34;6.50;;;5.67;;
20417;SDS011;10368;51.436;6.774;2023-12-04T14:26:01;8.80;;;6.20;;
20417;SDS011;10368;51.436;6.774;2023-12-04T14:28:28;9.47;;;7.33;;
20417;SDS011;10368;51.436;6.774;2023-12-04T14:31:07;6.63;;;5.90;;
20417;SDS011;10368;51.436;6.774;2023-12-04T14:33:34;8.83;;;5.80;;
20417;SDS011;10368;51.436;6.774;2023-12-04T14:36:04;8.20;;;6.37;;
20417;SDS011;10368;51.436;6.774;2023-12-04T14:38:31;8.30;;;6.67;;
20417;SDS011;10368;51.436;6.774;2023-12-04T14:40:58;7.77;;;6.07;;
20417;SDS011;10368;51.436;6.774;2023-12-04T14:43:26;6.93;;;5.40;;
20417;SDS011;10368;51.436;6.774;2023-12-04T14:45:56;8.07;;;5.53;;
20417;SDS011;10368;51.436;6.774;2023-12-04T14:48:23;8.67;;;5.90;;
20417;SDS011;10368;51.436;6.774;2023-12-04T14:50:50;6.23;;;5.13;;
20417;SDS011;10368;51.436;6.774;2023-12-04T14:53:17;6.50;;;5.27;;
20417;SDS011;10368;51.436;6.774;2023-12-04T14:56:10;6.27;;;4.60;;
20417;SDS011;10368;51.436;6.774;2023-12-04T14:59:02;6.23;;;5.17;;
20417;SDS011;10368;51.436;6.774;2023-12-04T15:01:32;5.30;;;4.70;;